sensor_id;sensor_type;location;lat;lon;timestamp;temperature;humidity
20498;DHT22;10407;53.238;10.448;2022-07-18T00:01:03;15.80;99.90
20498;DHT22;10407;53.238;10.448;2022-07-18T00:03:31;15.70;99.90
20498;DHT22;10407;53.238;10.448;2022-07-18T00:05:58;15.70;99.90
20498;DHT22;10407;53.238;10.448;2022-07-18T00:08:26;15.40;99.90
20498;DHT22;10407;53.238;10.448;2022-07-18T00:10:53;15.30;99.90
20498;DHT22;10407;53.238;10.448;2022-07-18T00:13:21;15.20;99.90
20498;DHT22;10407;53.238;10.448;2022-07-18T00:15:49;15.40;99.90
20498;DHT22;10407;53.238;10.448;2022-07-18T00:18:16;15.10;99.90
20498;DHT22;10407;53.238;10.448;2022-07-18T00:20:44;15.10;99.90
20498;DHT22;10407;53.238;10.448;2022-07-18T00:23:11;15.00;99.90
20498;DHT22;10407;53.238;10.448;2022-07-18T00:25:39;15.10;99.90
20498;DHT22;10407;53.238;10.448;2022-07-18T00:28:06;14.90;99.90
20498;DHT22;10407;53.238;10.448;2022-07-18T00:30:34;15.00;99.90
20498;DHT22;10407;53.238;10.448;2022-07-18T00:33:02;15.00;99.90
20498;DHT22;10407;53.238;10.448;2022-07-18T00:35:29;14.90;99.90
20498;DHT22;10407;53.238;10.448;2022-07-18T00:37:57;15.20;99.90
20498;DHT22;10407;53.238;10.448;2022-07-18T00:40:24;15.10;99.90
20498;DHT22;10407;53.238;10.448;2022-07-18T00:42:52;14.90;99.90
20498;DHT22;10407;53.238;10.448;2022-07-18T00:45:20;14.90;99.90
20498;DHT22;10407;53.238;10.448;2022-07-18T00:47:47;14.80;99.90
20498;DHT22;10407;53.238;10.448;2022-07-18T00:50:17;14.60;99.90
20498;DHT22;10407;53.238;10.448;2022-07-18T00:52:45;14.50;99.90
20498;DHT22;10407;53.238;10.448;2022-07-18T00:55:14;14.40;99.90
20498;DHT22;10407;53.238;10.448;2022-07-18T00:57:43;14.60;99.90
20498;DHT22;10407;53.238;10.448;2022-07-18T01:00:13;14.60;99.90
20498;DHT22;10407;53.238;10.448;2022-07-18T01:02:59;14.50;99.90
20498;DHT22;10407;53.238;10.448;2022-07-18T01:05:28;14.80;99.90
20498;DHT22;10407;53.238;10.448;2022-07-18T01:07:56;14.70;99.90
20498;DHT22;10407;53.238;10.448;2022-07-18T01:10:24;14.50;99.90
20498;DHT22;10407;53.238;10.448;2022-07-18T01:12:51;14.70;99.90
20498;DHT22;10407;53.238;10.448;2022-07-18T01:15:19;14.60;99.90
20498;DHT22;10407;53.238;10.448;2022-07-18T01:18:06;14.10;99.90
20498;DHT22;10407;53.238;10.448;2022-07-18T01:20:33;14.00;99.90
20498;DHT22;10407;53.238;10.448;2022-07-18T01:23:01;14.00;99.90
20498;DHT22;10407;53.238;10.448;2022-07-18T01:25:29;13.90;99.90
20498;DHT22;10407;53.238;10.448;2022-07-18T01:27:57;13.80;99.90
20498;DHT22;10407;53.238;10.448;2022-07-18T01:30:25;14.00;99.90
20498;DHT22;10407;53.238;10.448;2022-07-18T01:32:57;14.00;99.90
20498;DHT22;10407;53.238;10.448;2022-07-18T01:35:27;14.30;99.90
20498;DHT22;10407;53.238;10.448;2022-07-18T01:37:57;14.10;99.90
20498;DHT22;10407;53.238;10.448;2022-07-18T01:40:25;14.40;99.90
20498;DHT22;10407;53.238;10.448;2022-07-18T01:42:53;14.30;99.90
20498;DHT22;10407;53.238;10.448;2022-07-18T01:45:22;13.90;99.90
20498;DHT22;10407;53.238;10.448;2022-07-18T01:47:50;13.60;99.90
20498;DHT22;10407;53.238;10.448;2022-07-18T01:50:17;13.40;99.90
20498;DHT22;10407;53.238;10.448;2022-07-18T01:52:45;13.50;99.90
20498;DHT22;10407;53.238;10.448;2022-07-18T01:55:12;13.70;99.90
20498;DHT22;10407;53.238;10.448;2022-07-18T01:57:40;13.90;99.90
20498;DHT22;10407;53.238;10.448;2022-07-18T02:00:09;14.00;99.90
20498;DHT22;10407;53.238;10.448;2022-07-18T02:02:38;14.00;99.90
20498;DHT22;10407;53.238;10.448;2022-07-18T02:05:06;13.80;99.90
20498;DHT22;10407;53.238;10.448;2022-07-18T02:07:37;13.70;99.90
20498;DHT22;10407;53.238;10.448;2022-07-18T02:10:07;13.40;99.90
20498;DHT22;10407;53.238;10.448;2022-07-18T02:12:35;13.50;99.90
20498;DHT22;10407;53.238;10.448;2022-07-18T02:15:04;13.40;99.90
20498;DHT22;10407;53.238;10.448;2022-07-18T02:17:33;13.00;99.90
20498;DHT22;10407;53.238;10.448;2022-07-18T02:20:00;13.10;99.90
20498;DHT22;10407;53.238;10.448;2022-07-18T02:22:28;13.10;99.90
20498;DHT22;10407;53.238;10.448;2022-07-18T02:24:56;13.30;99.90
20498;DHT22;10407;53.238;10.448;2022-07-18T02:27:23;13.40;99.90
20498;DHT22;10407;53.238;10.448;2022-07-18T02:29:51;13.60;99.90
20498;DHT22;10407;53.238;10.448;2022-07-18T02:32:19;14.00;99.90
20498;DHT22;10407;53.238;10.448;2022-07-18T02:34:47;13.90;99.90
20498;DHT22;10407;53.238;10.448;2022-07-18T02:37:14;13.90;99.90
20498;DHT22;10407;53.238;10.448;2022-07-18T02:39:42;13.90;99.90
20498;DHT22;10407;53.238;10.448;2022-07-18T02:42:10;13.90;99.90
20498;DHT22;10407;53.238;10.448;2022-07-18T02:44:37;13.60;99.90
20498;DHT22;10407;53.238;10.448;2022-07-18T02:47:24;13.40;99.90
20498;DHT22;10407;53.238;10.448;2022-07-18T02:49:51;13.50;99.90
20498;DHT22;10407;53.238;10.448;2022-07-18T02:52:19;13.80;99.90
20498;DHT22;10407;53.238;10.448;2022-07-18T02:54:48;13.30;99.90
20498;DHT22;10407;53.238;10.448;2022-07-18T02:57:15;13.60;99.90
20498;DHT22;10407;53.238;10.448;2022-07-18T02:59:43;13.70;99.90
20498;DHT22;10407;53.238;10.448;2022-07-18T03:02:12;13.90;99.90
20498;DHT22;10407;53.238;10.448;2022-07-18T03:04:39;13.50;99.90
20498;DHT22;10407;53.238;10.448;2022-07-18T03:07:07;13.10;99.90
20498;DHT22;10407;53.238;10.448;2022-07-18T03:09:35;13.50;99.90
20498;DHT22;10407;53.238;10.448;2022-07-18T03:12:02;13.60;99.90
20498;DHT22;10407;53.238;10.448;2022-07-18T03:14:30;13.70;99.90
20498;DHT22;10407;53.238;10.448;2022-07-18T03:16:58;13.80;99.90
20498;DHT22;10407;53.238;10.448;2022-07-18T03:19:25;13.70;99.90
20498;DHT22;10407;53.238;10.448;2022-07-18T03:21:53;13.80;99.90
20498;DHT22;10407;53.238;10.448;2022-07-18T03:24:20;13.50;99.90
20498;DHT22;10407;53.238;10.448;2022-07-18T03:26:48;13.30;99.90
20498;DHT22;10407;53.238;10.448;2022-07-18T03:29:16;13.70;99.90
20498;DHT22;10407;53.238;10.448;2022-07-18T03:31:43;13.70;99.90
20498;DHT22;10407;53.238;10.448;2022-07-18T03:34:11;13.80;99.90
20498;DHT22;10407;53.238;10.448;2022-07-18T03:36:38;13.90;99.90
20498;DHT22;10407;53.238;10.448;2022-07-18T03:39:07;13.90;99.90
20498;DHT22;10407;53.238;10.448;2022-07-18T03:41:37;13.90;99.90
20498;DHT22;10407;53.238;10.448;2022-07-18T03:44:06;13.90;99.90
20498;DHT22;10407;53.238;10.448;2022-07-18T03:46:33;14.20;99.90
20498;DHT22;10407;53.238;10.448;2022-07-18T03:49:02;14.40;99.90
20498;DHT22;10407;53.238;10.448;2022-07-18T03:51:29;14.40;99.90
20498;DHT22;10407;53.238;10.448;2022-07-18T03:53:57;14.30;99.90
20498;DHT22;10407;53.238;10.448;2022-07-18T03:56:25;13.80;99.90
20498;DHT22;10407;53.238;10.448;2022-07-18T03:58:52;14.10;99.90
20498;DHT22;10407;53.238;10.448;2022-07-18T04:01:20;15.20;99.90
20498;DHT22;10407;53.238;10.448;2022-07-18T04:03:47;15.60;99.90
20498;DHT22;10407;53.238;10.448;2022-07-18T04:06:15;16.30;99.90
20498;DHT22;10407;53.238;10.448;2022-07-18T04:08:42;15.60;99.90
20498;DHT22;10407;53.238;10.448;2022-07-18T04:11:10;14.90;99.90
20498;DHT22;10407;53.238;10.448;2022-07-18T04:13:37;15.00;99.90
20498;DHT22;10407;53.238;10.448;2022-07-18T04:16:05;15.20;99.90
20498;DHT22;10407;53.238;10.448;2022-07-18T04:18:33;15.70;99.90
20498;DHT22;10407;53.238;10.448;2022-07-18T04:21:00;16.60;99.90
20498;DHT22;10407;53.238;10.448;2022-07-18T04:23:28;17.60;99.90
20498;DHT22;10407;53.238;10.448;2022-07-18T04:25:55;17.30;99.90
20498;DHT22;10407;53.238;10.448;2022-07-18T04:28:23;16.10;99.90
20498;DHT22;10407;53.238;10.448;2022-07-18T04:30:51;15.50;99.90
20498;DHT22;10407;53.238;10.448;2022-07-18T04:33:19;17.90;99.90
20498;DHT22;10407;53.238;10.448;2022-07-18T04:35:48;19.30;99.90
20498;DHT22;10407;53.238;10.448;2022-07-18T04:38:16;20.30;99.90
20498;DHT22;10407;53.238;10.448;2022-07-18T04:40:43;20.20;99.90
20498;DHT22;10407;53.238;10.448;2022-07-18T04:43:11;20.30;99.90
20498;DHT22;10407;53.238;10.448;2022-07-18T04:45:38;20.30;99.90
20498;DHT22;10407;53.238;10.448;2022-07-18T04:48:07;20.70;99.90
20498;DHT22;10407;53.238;10.448;2022-07-18T04:50:34;21.90;99.90
20498;DHT22;10407;53.238;10.448;2022-07-18T04:53:02;21.20;99.90
20498;DHT22;10407;53.238;10.448;2022-07-18T04:55:30;20.40;99.90
20498;DHT22;10407;53.238;10.448;2022-07-18T04:57:57;19.40;99.90
20498;DHT22;10407;53.238;10.448;2022-07-18T05:00:26;19.00;99.90
20498;DHT22;10407;53.238;10.448;2022-07-18T05:02:55;21.00;99.90
20498;DHT22;10407;53.238;10.448;2022-07-18T05:05:24;20.10;99.90
20498;DHT22;10407;53.238;10.448;2022-07-18T05:07:53;20.00;99.90
20498;DHT22;10407;53.238;10.448;2022-07-18T05:10:22;22.50;99.90
20498;DHT22;10407;53.238;10.448;2022-07-18T05:12:52;21.00;99.90
20498;DHT22;10407;53.238;10.448;2022-07-18T05:15:22;19.50;99.90
20498;DHT22;10407;53.238;10.448;2022-07-18T05:17:51;20.20;99.90
20498;DHT22;10407;53.238;10.448;2022-07-18T05:20:20;23.50;99.90
20498;DHT22;10407;53.238;10.448;2022-07-18T05:22:49;23.40;99.90
20498;DHT22;10407;53.238;10.448;2022-07-18T05:25:19;20.70;99.90
20498;DHT22;10407;53.238;10.448;2022-07-18T05:27:48;23.60;99.90
20498;DHT22;10407;53.238;10.448;2022-07-18T05:30:16;25.60;99.90
20498;DHT22;10407;53.238;10.448;2022-07-18T05:32:44;26.20;96.90
20498;DHT22;10407;53.238;10.448;2022-07-18T05:35:13;26.30;96.10
20498;DHT22;10407;53.238;10.448;2022-07-18T05:37:41;26.40;95.30
20498;DHT22;10407;53.238;10.448;2022-07-18T05:40:11;26.90;93.40
20498;DHT22;10407;53.238;10.448;2022-07-18T05:42:40;27.80;90.60
20498;DHT22;10407;53.238;10.448;2022-07-18T05:45:09;27.30;90.50
20498;DHT22;10407;53.238;10.448;2022-07-18T05:47:37;24.60;95.70
20498;DHT22;10407;53.238;10.448;2022-07-18T05:50:05;23.40;99.70
20498;DHT22;10407;53.238;10.448;2022-07-18T05:52:32;22.80;99.90
20498;DHT22;10407;53.238;10.448;2022-07-18T05:55:00;22.50;99.90
20498;DHT22;10407;53.238;10.448;2022-07-18T05:57:28;22.10;99.90
20498;DHT22;10407;53.238;10.448;2022-07-18T05:59:55;21.80;99.90
20498;DHT22;10407;53.238;10.448;2022-07-18T06:02:23;21.10;99.90
20498;DHT22;10407;53.238;10.448;2022-07-18T06:04:50;21.00;99.90
20498;DHT22;10407;53.238;10.448;2022-07-18T06:07:18;20.90;99.90
20498;DHT22;10407;53.238;10.448;2022-07-18T06:09:45;21.40;99.90
20498;DHT22;10407;53.238;10.448;2022-07-18T06:12:13;22.30;99.90
20498;DHT22;10407;53.238;10.448;2022-07-18T06:14:42;22.50;99.90
20498;DHT22;10407;53.238;10.448;2022-07-18T06:17:10;22.70;99.90
20498;DHT22;10407;53.238;10.448;2022-07-18T06:19:38;22.50;99.90
20498;DHT22;10407;53.238;10.448;2022-07-18T06:22:05;21.90;99.90
20498;DHT22;10407;53.238;10.448;2022-07-18T06:24:33;22.00;99.90
20498;DHT22;10407;53.238;10.448;2022-07-18T06:27:01;22.50;99.90
20498;DHT22;10407;53.238;10.448;2022-07-18T06:29:28;23.50;99.90
20498;DHT22;10407;53.238;10.448;2022-07-18T06:31:56;25.00;99.90
20498;DHT22;10407;53.238;10.448;2022-07-18T06:34:23;26.00;97.60
20498;DHT22;10407;53.238;10.448;2022-07-18T06:36:51;26.60;95.00
20498;DHT22;10407;53.238;10.448;2022-07-18T06:39:18;26.00;96.40
20498;DHT22;10407;53.238;10.448;2022-07-18T06:41:46;25.20;97.90
20498;DHT22;10407;53.238;10.448;2022-07-18T06:44:14;25.10;99.40
20498;DHT22;10407;53.238;10.448;2022-07-18T06:46:42;25.20;97.10
20498;DHT22;10407;53.238;10.448;2022-07-18T06:49:09;26.00;95.30
20498;DHT22;10407;53.238;10.448;2022-07-18T06:51:37;24.80;96.30
20498;DHT22;10407;53.238;10.448;2022-07-18T06:54:04;24.60;98.70
20498;DHT22;10407;53.238;10.448;2022-07-18T06:56:32;24.60;99.10
20498;DHT22;10407;53.238;10.448;2022-07-18T06:58:59;24.50;99.90
20498;DHT22;10407;53.238;10.448;2022-07-18T07:01:27;24.10;99.90
20498;DHT22;10407;53.238;10.448;2022-07-18T07:03:55;24.20;99.90
20498;DHT22;10407;53.238;10.448;2022-07-18T07:06:22;23.80;99.90
20498;DHT22;10407;53.238;10.448;2022-07-18T07:08:50;24.20;99.90
20498;DHT22;10407;53.238;10.448;2022-07-18T07:11:17;24.00;99.90
20498;DHT22;10407;53.238;10.448;2022-07-18T07:13:45;24.50;99.90
20498;DHT22;10407;53.238;10.448;2022-07-18T07:16:12;24.90;99.90
20498;DHT22;10407;53.238;10.448;2022-07-18T07:18:40;25.50;99.00
20498;DHT22;10407;53.238;10.448;2022-07-18T07:21:07;25.50;98.60
20498;DHT22;10407;53.238;10.448;2022-07-18T07:23:35;25.60;95.80
20498;DHT22;10407;53.238;10.448;2022-07-18T07:26:03;25.60;95.70
20498;DHT22;10407;53.238;10.448;2022-07-18T07:28:31;25.60;94.50
20498;DHT22;10407;53.238;10.448;2022-07-18T07:30:58;25.70;95.50
20498;DHT22;10407;53.238;10.448;2022-07-18T07:33:26;25.70;93.50
20498;DHT22;10407;53.238;10.448;2022-07-18T07:35:53;26.20;93.60
20498;DHT22;10407;53.238;10.448;2022-07-18T07:38:21;26.90;91.80
20498;DHT22;10407;53.238;10.448;2022-07-18T07:40:50;26.50;89.90
20498;DHT22;10407;53.238;10.448;2022-07-18T07:43:18;26.00;90.30
20498;DHT22;10407;53.238;10.448;2022-07-18T07:45:48;26.40;90.20
20498;DHT22;10407;53.238;10.448;2022-07-18T07:48:17;26.60;90.40
20498;DHT22;10407;53.238;10.448;2022-07-18T07:50:44;25.90;88.00
20498;DHT22;10407;53.238;10.448;2022-07-18T07:53:12;25.00;90.70
20498;DHT22;10407;53.238;10.448;2022-07-18T07:55:39;25.10;91.10
20498;DHT22;10407;53.238;10.448;2022-07-18T07:58:08;25.40;88.70
20498;DHT22;10407;53.238;10.448;2022-07-18T08:00:36;25.30;90.80
20498;DHT22;10407;53.238;10.448;2022-07-18T08:03:05;26.40;90.10
20498;DHT22;10407;53.238;10.448;2022-07-18T08:05:35;26.20;85.00
20498;DHT22;10407;53.238;10.448;2022-07-18T08:08:04;25.20;87.80
20498;DHT22;10407;53.238;10.448;2022-07-18T08:10:32;25.70;89.10
20498;DHT22;10407;53.238;10.448;2022-07-18T08:13:00;26.40;87.10
20498;DHT22;10407;53.238;10.448;2022-07-18T08:15:28;26.60;82.70
20498;DHT22;10407;53.238;10.448;2022-07-18T08:17:56;26.20;81.00
20498;DHT22;10407;53.238;10.448;2022-07-18T08:20:23;26.60;80.20
20498;DHT22;10407;53.238;10.448;2022-07-18T08:22:58;26.90;76.40
20498;DHT22;10407;53.238;10.448;2022-07-18T08:25:45;26.50;72.80
20498;DHT22;10407;53.238;10.448;2022-07-18T08:28:14;26.50;72.70
20498;DHT22;10407;53.238;10.448;2022-07-18T08:30:41;27.50;73.20
20498;DHT22;10407;53.238;10.448;2022-07-18T08:33:09;27.40;68.30
20498;DHT22;10407;53.238;10.448;2022-07-18T08:35:37;26.40;67.40
20498;DHT22;10407;53.238;10.448;2022-07-18T08:38:04;26.00;69.00
20498;DHT22;10407;53.238;10.448;2022-07-18T08:40:32;26.20;68.80
20498;DHT22;10407;53.238;10.448;2022-07-18T08:43:01;26.20;72.50
20498;DHT22;10407;53.238;10.448;2022-07-18T08:45:29;26.70;73.70
20498;DHT22;10407;53.238;10.448;2022-07-18T08:47:56;26.70;72.00
20498;DHT22;10407;53.238;10.448;2022-07-18T08:50:24;27.00;71.00
20498;DHT22;10407;53.238;10.448;2022-07-18T08:52:53;27.50;69.40
20498;DHT22;10407;53.238;10.448;2022-07-18T08:55:22;27.10;67.20
20498;DHT22;10407;53.238;10.448;2022-07-18T08:57:50;27.80;68.00
20498;DHT22;10407;53.238;10.448;2022-07-18T09:00:19;28.60;65.20
20498;DHT22;10407;53.238;10.448;2022-07-18T09:03:01;28.20;65.40
20498;DHT22;10407;53.238;10.448;2022-07-18T09:05:31;27.40;65.90
20498;DHT22;10407;53.238;10.448;2022-07-18T09:08:17;27.30;64.60
20498;DHT22;10407;53.238;10.448;2022-07-18T09:10:55;27.40;67.10
20498;DHT22;10407;53.238;10.448;2022-07-18T09:16:07;27.50;67.60
20498;DHT22;10407;53.238;10.448;2022-07-18T09:18:37;28.10;67.60
20498;DHT22;10407;53.238;10.448;2022-07-18T09:21:13;27.60;65.00
20498;DHT22;10407;53.238;10.448;2022-07-18T09:23:48;27.50;67.20
20498;DHT22;10407;53.238;10.448;2022-07-18T09:29:03;27.50;66.90
20498;DHT22;10407;53.238;10.448;2022-07-18T09:31:31;27.30;67.10
20498;DHT22;10407;53.238;10.448;2022-07-18T09:34:00;27.10;66.80
20498;DHT22;10407;53.238;10.448;2022-07-18T09:36:29;27.30;68.20
20498;DHT22;10407;53.238;10.448;2022-07-18T09:38:58;27.30;67.60
20498;DHT22;10407;53.238;10.448;2022-07-18T09:41:29;27.20;67.30
20498;DHT22;10407;53.238;10.448;2022-07-18T09:43:57;27.10;67.00
20498;DHT22;10407;53.238;10.448;2022-07-18T09:46:24;27.60;66.10
20498;DHT22;10407;53.238;10.448;2022-07-18T09:49:10;27.80;66.50
20498;DHT22;10407;53.238;10.448;2022-07-18T09:51:39;26.90;66.50
20498;DHT22;10407;53.238;10.448;2022-07-18T09:54:07;27.30;67.30
20498;DHT22;10407;53.238;10.448;2022-07-18T09:56:36;27.30;66.60
20498;DHT22;10407;53.238;10.448;2022-07-18T09:59:07;27.00;65.30
20498;DHT22;10407;53.238;10.448;2022-07-18T10:01:35;26.60;68.50
20498;DHT22;10407;53.238;10.448;2022-07-18T10:04:02;26.70;65.30
20498;DHT22;10407;53.238;10.448;2022-07-18T10:06:30;27.10;64.00
20498;DHT22;10407;53.238;10.448;2022-07-18T10:08:58;27.30;63.30
20498;DHT22;10407;53.238;10.448;2022-07-18T10:11:26;28.30;62.30
20498;DHT22;10407;53.238;10.448;2022-07-18T10:13:54;27.90;60.90
20498;DHT22;10407;53.238;10.448;2022-07-18T10:16:22;28.30;61.20
20498;DHT22;10407;53.238;10.448;2022-07-18T10:18:50;28.50;61.00
20498;DHT22;10407;53.238;10.448;2022-07-18T10:21:19;28.60;60.20
20498;DHT22;10407;53.238;10.448;2022-07-18T10:23:47;28.00;59.20
20498;DHT22;10407;53.238;10.448;2022-07-18T10:26:17;27.70;60.90
20498;DHT22;10407;53.238;10.448;2022-07-18T10:31:39;27.90;61.70
20498;DHT22;10407;53.238;10.448;2022-07-18T10:34:11;27.90;62.00
20498;DHT22;10407;53.238;10.448;2022-07-18T10:36:42;27.90;59.50
20498;DHT22;10407;53.238;10.448;2022-07-18T10:39:12;28.00;60.60
20498;DHT22;10407;53.238;10.448;2022-07-18T10:47:04;28.30;61.80
20498;DHT22;10407;53.238;10.448;2022-07-18T10:57:40;28.00;60.90
20498;DHT22;10407;53.238;10.448;2022-07-18T11:00:10;27.60;62.90
20498;DHT22;10407;53.238;10.448;2022-07-18T11:02:45;27.70;62.00
20498;DHT22;10407;53.238;10.448;2022-07-18T11:21:31;28.20;58.80
20498;DHT22;10407;53.238;10.448;2022-07-18T11:24:07;28.70;58.10
20498;DHT22;10407;53.238;10.448;2022-07-18T11:26:26;28.70;57.50
20498;DHT22;10407;53.238;10.448;2022-07-18T11:29:07;28.20;57.80
20498;DHT22;10407;53.238;10.448;2022-07-18T11:31:49;28.30;58.60
20498;DHT22;10407;53.238;10.448;2022-07-18T11:34:17;29.10;57.30
20498;DHT22;10407;53.238;10.448;2022-07-18T11:36:46;28.80;56.10
20498;DHT22;10407;53.238;10.448;2022-07-18T11:39:16;28.70;57.50
20498;DHT22;10407;53.238;10.448;2022-07-18T11:41:43;28.50;56.90
20498;DHT22;10407;53.238;10.448;2022-07-18T11:44:20;28.70;56.40
20498;DHT22;10407;53.238;10.448;2022-07-18T11:47:05;28.80;56.00
20498;DHT22;10407;53.238;10.448;2022-07-18T11:49:34;28.50;56.60
20498;DHT22;10407;53.238;10.448;2022-07-18T11:52:03;28.80;56.60
20498;DHT22;10407;53.238;10.448;2022-07-18T11:54:31;28.80;56.30
20498;DHT22;10407;53.238;10.448;2022-07-18T11:56:59;28.30;56.40
20498;DHT22;10407;53.238;10.448;2022-07-18T11:59:41;28.00;56.80
20498;DHT22;10407;53.238;10.448;2022-07-18T12:02:10;27.90;56.70
20498;DHT22;10407;53.238;10.448;2022-07-18T12:04:39;28.00;57.30
20498;DHT22;10407;53.238;10.448;2022-07-18T12:07:24;28.30;57.50
20498;DHT22;10407;53.238;10.448;2022-07-18T12:09:53;28.40;57.90
20498;DHT22;10407;53.238;10.448;2022-07-18T12:12:23;28.40;57.50
20498;DHT22;10407;53.238;10.448;2022-07-18T12:14:55;28.20;56.00
20498;DHT22;10407;53.238;10.448;2022-07-18T12:17:23;27.70;55.80
20498;DHT22;10407;53.238;10.448;2022-07-18T12:19:51;27.90;56.00
20498;DHT22;10407;53.238;10.448;2022-07-18T12:22:18;28.00;56.40
20498;DHT22;10407;53.238;10.448;2022-07-18T12:27:40;28.00;55.90
20498;DHT22;10407;53.238;10.448;2022-07-18T12:30:18;28.00;57.10
20498;DHT22;10407;53.238;10.448;2022-07-18T12:32:55;28.00;55.60
20498;DHT22;10407;53.238;10.448;2022-07-18T12:35:25;28.00;56.10
20498;DHT22;10407;53.238;10.448;2022-07-18T12:38:02;28.00;55.70
20498;DHT22;10407;53.238;10.448;2022-07-18T12:43:30;28.40;55.20
20498;DHT22;10407;53.238;10.448;2022-07-18T12:45:59;28.40;55.20
20498;DHT22;10407;53.238;10.448;2022-07-18T12:48:29;28.50;55.30
20498;DHT22;10407;53.238;10.448;2022-07-18T12:51:05;28.50;54.80
20498;DHT22;10407;53.238;10.448;2022-07-18T12:53:38;28.50;54.80
20498;DHT22;10407;53.238;10.448;2022-07-18T12:56:06;28.40;55.20
20498;DHT22;10407;53.238;10.448;2022-07-18T12:58:33;28.30;54.90
20498;DHT22;10407;53.238;10.448;2022-07-18T13:01:01;28.40;55.10
20498;DHT22;10407;53.238;10.448;2022-07-18T13:03:29;28.50;54.10
20498;DHT22;10407;53.238;10.448;2022-07-18T13:05:56;28.50;54.30
20498;DHT22;10407;53.238;10.448;2022-07-18T13:08:24;28.40;53.90
20498;DHT22;10407;53.238;10.448;2022-07-18T13:10:53;28.70;53.60
20498;DHT22;10407;53.238;10.448;2022-07-18T13:13:20;28.80;53.30
20498;DHT22;10407;53.238;10.448;2022-07-18T13:15:48;29.00;53.50
20498;DHT22;10407;53.238;10.448;2022-07-18T13:18:16;28.80;52.20
20498;DHT22;10407;53.238;10.448;2022-07-18T13:20:43;28.60;52.30
20498;DHT22;10407;53.238;10.448;2022-07-18T13:23:12;28.40;52.10
20498;DHT22;10407;53.238;10.448;2022-07-18T13:25:41;28.60;52.60
20498;DHT22;10407;53.238;10.448;2022-07-18T13:28:10;28.80;52.20
20498;DHT22;10407;53.238;10.448;2022-07-18T13:30:37;28.80;52.10
20498;DHT22;10407;53.238;10.448;2022-07-18T13:33:05;28.60;52.40
20498;DHT22;10407;53.238;10.448;2022-07-18T13:35:33;28.40;52.30
20498;DHT22;10407;53.238;10.448;2022-07-18T13:38:01;28.50;53.10
20498;DHT22;10407;53.238;10.448;2022-07-18T13:40:29;28.50;52.70
20498;DHT22;10407;53.238;10.448;2022-07-18T13:42:57;28.60;52.70
20498;DHT22;10407;53.238;10.448;2022-07-18T13:45:25;28.70;52.70
20498;DHT22;10407;53.238;10.448;2022-07-18T13:47:53;28.70;52.30
20498;DHT22;10407;53.238;10.448;2022-07-18T13:50:20;28.70;52.40
20498;DHT22;10407;53.238;10.448;2022-07-18T13:52:48;28.50;51.70
20498;DHT22;10407;53.238;10.448;2022-07-18T13:55:16;28.40;52.00
20498;DHT22;10407;53.238;10.448;2022-07-18T13:57:43;28.40;51.60
20498;DHT22;10407;53.238;10.448;2022-07-18T14:00:12;28.30;51.90
20498;DHT22;10407;53.238;10.448;2022-07-18T14:02:39;28.40;52.10
20498;DHT22;10407;53.238;10.448;2022-07-18T14:05:07;28.50;52.20
20498;DHT22;10407;53.238;10.448;2022-07-18T14:07:35;28.40;52.10
20498;DHT22;10407;53.238;10.448;2022-07-18T14:10:03;28.20;51.40
20498;DHT22;10407;53.238;10.448;2022-07-18T14:12:30;28.20;51.90
20498;DHT22;10407;53.238;10.448;2022-07-18T14:14:58;28.20;51.50
20498;DHT22;10407;53.238;10.448;2022-07-18T14:17:25;28.20;51.80
20498;DHT22;10407;53.238;10.448;2022-07-18T14:19:53;28.30;52.50
20498;DHT22;10407;53.238;10.448;2022-07-18T14:22:20;28.50;53.00
20498;DHT22;10407;53.238;10.448;2022-07-18T14:24:48;28.50;51.60
20498;DHT22;10407;53.238;10.448;2022-07-18T14:27:15;28.80;50.80
20498;DHT22;10407;53.238;10.448;2022-07-18T14:29:43;28.90;50.20
20498;DHT22;10407;53.238;10.448;2022-07-18T14:32:11;29.00;50.40
20498;DHT22;10407;53.238;10.448;2022-07-18T14:34:38;29.00;49.80
20498;DHT22;10407;53.238;10.448;2022-07-18T14:37:06;29.10;49.20
20498;DHT22;10407;53.238;10.448;2022-07-18T14:39:33;29.00;49.60
20498;DHT22;10407;53.238;10.448;2022-07-18T14:42:01;28.80;50.80
20498;DHT22;10407;53.238;10.448;2022-07-18T14:44:28;28.70;50.20
20498;DHT22;10407;53.238;10.448;2022-07-18T14:46:56;28.60;50.30
20498;DHT22;10407;53.238;10.448;2022-07-18T14:49:23;28.50;49.60
20498;DHT22;10407;53.238;10.448;2022-07-18T14:51:51;28.60;50.20
20498;DHT22;10407;53.238;10.448;2022-07-18T14:54:19;28.60;50.60
20498;DHT22;10407;53.238;10.448;2022-07-18T14:56:46;28.60;49.30
20498;DHT22;10407;53.238;10.448;2022-07-18T14:59:14;28.60;50.00
20498;DHT22;10407;53.238;10.448;2022-07-18T15:01:41;28.60;50.00
20498;DHT22;10407;53.238;10.448;2022-07-18T15:04:09;28.50;49.80
20498;DHT22;10407;53.238;10.448;2022-07-18T15:06:37;28.50;49.60
20498;DHT22;10407;53.238;10.448;2022-07-18T15:09:04;28.50;49.30
20498;DHT22;10407;53.238;10.448;2022-07-18T15:11:33;28.70;49.10
20498;DHT22;10407;53.238;10.448;2022-07-18T15:14:20;28.70;48.40
20498;DHT22;10407;53.238;10.448;2022-07-18T15:16:47;28.90;48.10
20498;DHT22;10407;53.238;10.448;2022-07-18T15:19:15;29.00;48.60
20498;DHT22;10407;53.238;10.448;2022-07-18T15:21:42;28.80;48.30
20498;DHT22;10407;53.238;10.448;2022-07-18T15:24:10;28.80;47.80
20498;DHT22;10407;53.238;10.448;2022-07-18T15:26:37;28.80;47.70
20498;DHT22;10407;53.238;10.448;2022-07-18T15:29:05;28.90;47.80
20498;DHT22;10407;53.238;10.448;2022-07-18T15:31:34;28.90;47.70
20498;DHT22;10407;53.238;10.448;2022-07-18T15:34:01;29.00;47.60
20498;DHT22;10407;53.238;10.448;2022-07-18T15:36:29;29.10;47.60
20498;DHT22;10407;53.238;10.448;2022-07-18T15:38:56;29.20;47.50
20498;DHT22;10407;53.238;10.448;2022-07-18T15:41:24;29.20;47.80
20498;DHT22;10407;53.238;10.448;2022-07-18T15:43:51;29.30;48.00
20498;DHT22;10407;53.238;10.448;2022-07-18T15:46:19;29.20;47.50
20498;DHT22;10407;53.238;10.448;2022-07-18T15:48:47;29.20;48.20
20498;DHT22;10407;53.238;10.448;2022-07-18T15:51:15;29.10;48.00
20498;DHT22;10407;53.238;10.448;2022-07-18T15:53:42;29.10;47.20
20498;DHT22;10407;53.238;10.448;2022-07-18T15:56:10;29.10;47.90
20498;DHT22;10407;53.238;10.448;2022-07-18T15:58:37;29.30;47.00
20498;DHT22;10407;53.238;10.448;2022-07-18T16:01:05;29.20;46.40
20498;DHT22;10407;53.238;10.448;2022-07-18T16:03:33;29.00;47.60
20498;DHT22;10407;53.238;10.448;2022-07-18T16:06:00;29.20;48.10
20498;DHT22;10407;53.238;10.448;2022-07-18T16:08:28;29.10;47.50